Latest Coastal Weather Observations for Red Rocks Point

IDW60701

Issued at 2:23 am WST Monday 5 December 2016 (issued every 10 minutes, with the page automatically refreshed every 10 minutes)

About coastal observations | Map of coastal stations | Coastal observations for WA | Marine services | Other Formats
Station Details ID: 011053 Name: RED ROCKS POINT Lat: -32.20 Lon: 127.53 Height: 3.1 m
Data from the previous 72 hours. | See also: Recent months at Red Rocks Point
Date/Time
WST
Temp
°C
Wind Pressure Rain since
9am
mm
Weather Cloud Vis
km
Sea
Height
m
Swell
Dir  Spd
kts
Gust
kts
hPa Trend Height
m
Period
s
Dir
05/02:00am 17.1 ESE 13 16 1013.8 - 0.0 - - - - - - -
05/01:30am 17.1 ESE 13 17 1014.2 - 0.0 - - - - - - -
05/01:00am 16.9 ESE 11 14 1015.4 - 0.0 - - - - - - -
05/12:30am 17.0 ESE 13 16 1014.9 - 0.0 - - - - - - -
05/12:00am 16.7 ESE 13 17 1014.8 - 0.0 - - - - - - -
 
Date/Time
WST
Temp
°C
Wind Pressure Rain since
9am
mm
Weather Cloud Vis
km
Sea
Height
m
Swell
Dir  Spd
kts
Gust
kts
hPa Trend Height
m
Period
s
Dir
04/11:30pm 17.0 SE 15 19 1014.7 - 0.0 - - - - - - -
04/11:00pm 17.0 SE 16 20 1014.4 - 0.0 - - - - - - -
04/10:30pm 17.0 SE 15 19 1014.8 - 0.0 - - - - - - -
04/10:00pm 17.0 SSE 15 19 1015.0 - 0.0 - - - - - - -
04/09:30pm 17.2 SSE 15 19 1015.1 - 0.0 - - - - - - -
04/09:00pm 17.1 SSE 15 17 1015.1 - 0.0 - - - - - - -
04/08:30pm 16.9 S 15 18 1015.1 - 0.0 - - - - - - -
04/08:00pm 17.1 S 15 18 1014.8 - 0.0 - - - - - - -
04/07:30pm 17.0 S 13 17 1014.7 - 0.0 - - - - - - -
04/07:00pm 17.1 S 15 18 1014.3 - 0.0 - - - - - - -
04/06:30pm 17.4 S 17 21 1013.7 - 0.0 - - - - - - -
04/06:00pm 17.7 S 16 19 1013.4 - 0.0 - - - - - - -
04/05:30pm 18.1 SSW 15 19 1013.4 - 0.0 - - - - - - -
04/05:00pm 18.9 SSW 12 17 1012.9 - 0.0 - - - - - - -
04/04:30pm 19.6 SSW 15 18 1012.6 - 0.0 - - - - - - -
04/04:00pm 19.6 SSW 14 18 1012.5 - 0.0 - - - - - - -
04/03:30pm 20.7 SSW 13 19 1012.7 - 0.0 - - - - - - -
04/03:00pm 20.7 SSW 15 19 1012.5 - 0.0 - - - - - - -
04/02:30pm 21.3 SSW 14 18 1012.5 - 0.0 - - - - - - -
04/02:00pm 21.7 SW 14 19 1012.4 - 0.0 - - - - - - -
04/01:30pm 21.6 SW 16 23 1012.2 - 0.0 - - - - - - -
04/01:00pm 21.8 SW 16 21 1012.0 - 0.0 - - - - - - -
04/12:30pm 22.0 SW 15 23 1011.7 - 0.0 - - - - - - -
04/12:00pm 22.3 SW 16 23 1011.2 - 0.0 - - - - - - -
04/11:30am 22.0 SW 18 26 1010.6 - 0.0 - - - - - - -
04/11:00am 21.5 SW 19 26 1010.5 - 0.0 - - - - - - -
04/10:30am 21.5 SW 17 28 1010.3 - 0.0 - - - - - - -
04/10:04am 20.2 SW 17 27 1010.3 - 0.0 - - - - - - -
04/10:00am 20.3 SW 17 23 1010.3 - 0.0 - - - - - - -
04/09:30am 20.9 SW 17 24 1010.1 - 0.0 - - - - - - -
04/09:00am 21.4 SW 15 23 1009.8 - - - - - - - - -
04/08:30am 21.9 SW 16 27 1009.5 - - - - - - - - -
04/08:24am 21.1 SW 15 27 1009.4 - - - - - - - - -
04/08:00am 20.6 SW 16 25 1009.0 - - - - - - - - -
04/07:30am 20.2 SW 18 28 1008.6 - - - - - - - - -
04/07:00am 20.5 SW 17 27 1008.3 - - - - - - - - -
04/06:30am 20.4 SW 16 26 1007.7 - - - - - - - - -
04/06:00am 20.0 SW 15 25 1007.0 - - - - - - - - -
04/05:31am 19.4 WSW 17 28 1005.9 - - - - - - - - -
04/05:30am 19.5 WSW 17 24 1005.9 - - - - - - - - -
04/05:00am 18.9 WSW 15 24 1005.1 - - - - - - - - -
04/04:44am 18.7 WSW 16 26 1004.6 - - - - - - - - -
04/04:30am 18.7 WSW 15 22 1004.3 - - - - - - - - -
04/04:00am 19.1 WSW 17 27 1003.5 - - - - - - - - -
04/03:34am 19.5 WSW 16 26 1003.1 - - - - - - - - -
04/03:30am 19.5 WSW 15 24 1002.9 - - - - - - - - -
04/03:00am 21.1 W 11 18 1002.3 - 0.0 - - - - - - -
04/02:30am 22.6 WSW 9 14 1001.9 - - - - - - - - -
04/02:00am 23.2 WNW 6 9 1001.3 - - - - - - - - -
04/01:30am 23.6 WNW 7 10 1000.9 - - - - - - - - -
04/01:00am 23.8 WNW 7 10 1000.8 - - - - - - - - -
04/12:30am 22.8 NW 6 10 1000.6 - - - - - - - - -
04/12:00am 21.6 W 6 10 1000.7 - - - - - - - - -
 
Date/Time
WST
Temp
°C
Wind Pressure Rain since
9am
mm
Weather Cloud Vis
km
Sea
Height
m
Swell
Dir  Spd
kts
Gust
kts
hPa Trend Height
m
Period
s
Dir
03/11:30pm 21.5 W 6 11 1000.8 - - - - - - - - -
03/11:00pm 22.0 N 7 10 999.1 - - - - - - - - -
03/10:30pm 22.1 NNE 10 15 999.3 - - - - - - - - -
03/10:00pm 21.9 NNE 12 17 1000.1 - - - - - - - - -
03/09:30pm 21.8 NE 15 23 1000.5 - - - - - - - - -
03/09:00pm 21.8 NE 18 24 1001.4 - - - - - - - - -
03/08:30pm 22.0 NE 18 25 1001.9 - - - - - - - - -
03/08:08pm 22.0 NE 20 30 1002.3 - - - - - - - - -
03/07:30pm 21.4 ENE 14 19 1001.3 - 2.4 - - - - - - -
03/07:00pm 21.4 ENE 20 24 1001.1 - 2.4 - - - - - - -
03/06:30pm 21.3 ENE 22 27 1000.9 - 2.4 - - - - - - -
03/06:11pm 21.4 E 15 22 1001.4 - 2.4 - - - - - - -
03/06:00pm 21.5 ENE 7 10 1003.4 - 2.2 Rain - - - - - -
03/05:30pm 22.1 NW 7 11 1004.8 - 0.0 - - - - - - -
03/05:07pm 25.9 NW 15 26 1004.1 - 0.0 - - - - - - -
03/05:00pm 23.9 N 11 19 1004.5 - 0.0 - - - - - - -
03/04:58pm 23.0 NNE 11 18 1004.1 - 0.0 - - - - - - -
03/04:53pm 21.4 NE 17 27 1001.6 - 0.0 - - - - - - -
03/04:30pm 21.1 ENE 23 30 999.8 - 0.0 - - - - - - -
03/04:00pm 21.1 ENE 23 27 999.6 - 0.0 - - - - - - -
03/03:30pm 21.3 ENE 23 29 1000.0 - 0.0 - - - - - - -
03/03:28pm 21.2 ENE 24 29 1000.0 - 0.0 - - - - - - -
03/03:00pm 21.5 ENE 24 29 1002.0 - 0.0 - - - - - - -
03/02:30pm 21.5 E 22 26 1002.4 - 0.0 - - - - - - -
03/02:00pm 20.9 E 19 23 1003.4 - 0.0 - - - - - - -
03/01:30pm 21.8 E 17 21 1004.3 - 0.0 - - - - - - -
03/01:00pm 22.0 ENE 20 25 1004.8 - 0.0 - - - - - - -
03/12:30pm 20.7 ENE 20 24 1005.2 - 0.0 - - - - - - -
03/12:00pm 20.9 ENE 20 24 1005.3 - 0.0 - - - - - - -
03/11:30am 21.3 ENE 21 27 1005.7 - 0.0 - - - - - - -
03/11:00am 21.7 ENE 20 25 1006.9 - 0.0 - - - - - - -
03/10:30am 20.9 ENE 20 25 1007.0 - 0.0 - - - - - - -
03/10:00am 21.6 ENE 19 22 1007.5 - 0.0 - - - - - - -
03/09:30am 21.1 ENE 19 23 1008.1 - 0.0 - - - - - - -
03/09:00am 21.2 E 20 24 1008.5 - 0.0 - - - - - - -
03/08:30am 21.4 E 19 21 1008.8 - 0.0 - - - - - - -
03/08:00am 23.5 ENE 16 20 1009.1 - 0.0 - - - - - - -
03/07:30am 22.0 ENE 16 20 1009.3 - 0.0 - - - - - - -
03/07:00am 20.5 NE 15 21 1009.6 - 0.0 - - - - - - -
03/06:30am 19.3 NE 16 21 1009.9 - 0.0 - - - - - - -
03/06:00am 17.9 ENE 15 21 1010.2 - 0.0 - - - - - - -
03/05:30am 16.7 NE 12 18 1010.4 - 0.0 - - - - - - -
03/05:00am 16.8 NE 12 17 1010.3 - 0.0 - - - - - - -
03/04:30am 17.8 ENE 22 26 1010.1 - 0.0 - - - - - - -
03/04:00am 17.4 E 22 25 1009.1 - 0.0 - - - - - - -
03/03:30am 17.4 E 21 23 1009.2 - 0.0 - - - - - - -
03/03:00am 17.4 E 19 23 1009.7 - 0.0 - - - - - - -
03/02:30am 17.3 E 19 22 1010.1 - 0.0 - - - - - - -
03/02:00am 17.5 E 18 21 1010.5 - 0.0 - - - - - - -
03/01:30am 17.4 E 17 21 1010.9 - 0.0 - - - - - - -
03/01:00am 17.2 E 18 21 1011.4 - 0.0 - - - - - - -
03/12:30am 17.5 E 18 21 1011.8 - 0.0 - - - - - - -
03/12:00am 17.4 E 19 22 1012.0 - 0.0 - - - - - - -
 
Date/Time
WST
Temp
°C
Wind Pressure Rain since
9am
mm
Weather Cloud Vis
km
Sea
Height
m
Swell
Dir  Spd
kts
Gust
kts
hPa Trend Height
m
Period
s
Dir
02/11:30pm 17.4 E 19 22 1012.6 - 0.0 - - - - - - -
02/11:00pm 17.6 E 20 25 1012.8 - 0.0 - - - - - - -
02/10:30pm 17.5 E 19 22 1013.3 - 0.0 - - - - - - -
02/10:00pm 17.3 E 20 23 1013.5 - 0.0 - - - - - - -
02/09:30pm 17.3 E 20 23 1013.5 - 0.0 - - - - - - -
02/09:00pm 17.3 E 20 24 1013.4 - 0.0 - - - - - - -
02/08:30pm 17.2 E 20 25 1013.4 - 0.0 - - - - - - -
02/08:00pm 17.4 E 20 23 1013.5 - 0.0 - - - - - - -
02/07:30pm 17.2 E 20 24 1013.1 - 0.0 - - - - - - -
02/07:00pm 17.1 E 20 25 1013.0 - 0.0 - - - - - - -
02/06:30pm 17.3 ESE 21 25 1013.0 - 0.0 - - - - - - -
02/06:00pm 17.2 ESE 21 24 1012.9 - 0.0 - - - - - - -
02/05:30pm 17.6 ESE 20 23 1012.9 - 0.0 - - - - - - -
02/05:00pm 18.0 ESE 19 23 1013.0 - 0.0 - - - - - - -
02/04:30pm 18.2 ESE 18 22 1013.1 - 0.0 - - - - - - -
02/04:00pm 18.6 ESE 18 21 1013.3 - 0.0 - - - - - - -
02/03:30pm 19.1 ESE 16 19 1013.7 - 0.0 - - - - - - -
02/03:00pm 19.3 ESE 17 20 1013.8 - 0.0 - - - - - - -
02/02:30pm 19.7 ESE 16 20 1013.9 - 0.0 - - - - - - -
02/02:00pm 19.7 ESE 17 20 1014.0 - 0.0 - - - - - - -
02/01:30pm 20.1 ESE 15 19 1014.3 - 0.0 - - - - - - -
02/01:00pm 20.2 ESE 15 18 1014.6 - 0.0 - - - - - - -
02/12:30pm 20.4 ESE 14 16 1014.7 - 0.0 - - - - - - -
02/12:00pm 20.2 SE 14 18 1014.9 - 0.0 - - - - - - -
02/11:30am 20.4 ESE 13 16 1015.2 - 0.0 - - - - - - -
02/11:00am 20.0 SE 13 16 1015.5 - 0.0 - - - - - - -
02/10:30am 20.3 ESE 13 15 1015.7 - 0.0 - - - - - - -
02/10:00am 20.2 ESE 12 15 1016.0 - 0.0 - - - - - - -
02/09:30am 19.9 ESE 12 15 1016.2 - 0.0 - - - - - - -
02/09:00am 20.2 ESE 12 14 1016.3 - 0.0 - - - - - - -
02/08:30am 19.6 ESE 12 15 1016.3 - 0.0 - - - - - - -
02/08:00am 19.0 ESE 13 15 1016.3 - 0.0 - - - - - - -
02/07:30am 18.8 ESE 12 15 1016.4 - 0.0 - - - - - - -
02/07:00am 18.7 ESE 11 13 1016.3 - 0.0 - - - - - - -
02/06:30am 17.5 ESE 11 13 1016.1 - 0.0 - - - - - - -
02/06:00am 17.6 ESE 12 15 1015.8 - 0.0 - - - - - - -
02/05:30am 17.6 SE 12 14 1015.6 - 0.0 - - - - - - -
02/05:00am 16.6 SE 10 13 1015.4 - 0.0 - - - - - - -
02/04:30am 16.3 SE 11 14 1015.0 - 0.0 - - - - - - -
02/04:00am 16.4 SE 10 14 1014.7 - 0.0 - - - - - - -
02/03:30am 16.1 SSE 11 13 1014.6 - 0.0 - - - - - - -
02/03:00am 16.3 SSE 12 14 1014.4 - 0.0 - - - - - - -
02/02:30am 16.1 SSE 11 13 1014.3 - 0.0 - - - - - - -

Other Formats:

Comma delimited format used in spreadsheet applications
http://www.bom.gov.au/fwo/IDW60701/IDW60701.94644.axf

JavaScript Object Notation format (JSON) in row-major order
http://www.bom.gov.au/fwo/IDW60701/IDW60701.94644.json